createdAt,value
2023-04-16T00:01:58.179Z,99736.63
2023-04-16T00:04:25.268Z,99739.90
2023-04-16T00:06:51.948Z,99740.17
2023-04-16T00:09:18.656Z,99736.80
2023-04-16T00:11:45.274Z,99740.95
2023-04-16T00:14:12.489Z,99743.23
2023-04-16T00:16:39.141Z,99741.23
2023-04-16T00:19:05.779Z,99744.63
2023-04-16T00:21:33.679Z,99745.38
2023-04-16T00:24:00.248Z,99746.67
2023-04-16T00:26:26.865Z,99744.21
2023-04-16T00:28:54.079Z,99741.15
2023-04-16T00:31:28.367Z,99746.02
2023-04-16T00:33:56.266Z,99740.73
2023-04-16T00:36:23.610Z,99744.55
2023-04-16T00:38:50.740Z,99743.29
2023-04-16T00:41:17.372Z,99746.80
2023-04-16T00:43:43.962Z,99747.65
2023-04-16T00:46:10.651Z,99743.98
2023-04-16T00:48:37.652Z,99744.80
2023-04-16T00:51:04.963Z,99747.20
2023-04-16T00:53:32.128Z,99747.20
2023-04-16T00:56:00.241Z,99750.11
2023-04-16T00:58:27.065Z,99748.92
2023-04-16T01:00:53.696Z,99749.52
2023-04-16T01:03:20.460Z,99747.02
2023-04-16T01:05:51.152Z,99744.02
2023-04-16T01:08:19.412Z,99747.28
2023-04-16T01:10:46.298Z,99748.38
2023-04-16T01:13:13.163Z,99749.02
2023-04-16T01:15:39.845Z,99748.94
2023-04-16T01:18:16.654Z,99750.08
2023-04-16T01:20:43.663Z,99754.48
2023-04-16T01:23:11.204Z,99752.88
2023-04-16T01:25:38.444Z,99749.89
2023-04-16T01:28:06.296Z,99751.59
2023-04-16T01:30:33.309Z,99755.46
2023-04-16T01:33:09.767Z,99754.02
2023-04-16T01:35:37.075Z,99750.52
2023-04-16T01:38:05.834Z,99748.92
2023-04-16T01:40:32.455Z,99752.88
2023-04-16T01:42:59.216Z,99752.96
2023-04-16T01:45:25.908Z,99753.02
2023-04-16T01:47:53.325Z,99754.58
2023-04-16T01:50:20.538Z,99756.13
2023-04-16T01:52:47.233Z,99758.98
2023-04-16T01:55:13.987Z,99758.27
2023-04-16T01:57:40.770Z,99755.55
2023-04-16T02:00:08.160Z,99754.70
2023-04-16T02:02:46.298Z,99757.13
2023-04-16T02:05:14.873Z,99762.53
2023-04-16T02:07:42.927Z,99759.17
2023-04-16T02:10:09.884Z,99760.27
2023-04-16T02:12:38.730Z,99760.59
2023-04-16T02:15:06.007Z,99760.73
2023-04-16T02:17:33.584Z,99761.02
2023-04-16T02:20:10.234Z,99765.02
2023-04-16T02:22:42.870Z,99770.40
2023-04-16T02:25:10.591Z,99771.41
2023-04-16T02:27:37.872Z,99772.77
2023-04-16T02:30:17.122Z,99775.55
2023-04-16T02:32:44.090Z,99775.85
2023-04-16T02:35:10.816Z,99773.41
2023-04-16T02:37:40.235Z,99776.25
2023-04-16T02:40:08.539Z,99771.56
2023-04-16T02:42:35.357Z,99767.83
2023-04-16T02:45:02.250Z,99772.96
2023-04-16T02:47:29.769Z,99773.64
2023-04-16T02:49:56.582Z,99775.84
2023-04-16T02:52:23.466Z,99779.13
2023-04-16T02:54:50.439Z,99780.93
2023-04-16T02:57:17.382Z,99784.00
2023-04-16T02:59:44.182Z,99787.06
2023-04-16T03:02:11.478Z,99786.32
2023-04-16T03:04:38.531Z,99793.73
2023-04-16T03:07:06.451Z,99792.27
2023-04-16T03:09:33.695Z,99795.09
2023-04-16T03:12:04.230Z,99795.60
2023-04-16T03:14:31.137Z,99796.89
2023-04-16T03:16:58.073Z,99798.23
2023-04-16T03:19:25.332Z,99798.13
2023-04-16T03:21:52.646Z,99801.36
2023-04-16T03:24:19.510Z,99803.02
2023-04-16T03:26:48.271Z,99803.59
2023-04-16T03:29:15.489Z,99810.57
2023-04-16T03:31:42.428Z,99810.63
2023-04-16T03:34:10.152Z,99809.88
2023-04-16T03:36:39.890Z,99811.05
2023-04-16T03:39:06.865Z,99814.66
2023-04-16T03:41:34.479Z,99821.08
2023-04-16T03:44:02.890Z,99819.19
2023-04-16T03:46:30.504Z,99816.70
2023-04-16T03:48:59.295Z,99819.38
2023-04-16T03:51:30.315Z,99824.41
2023-04-16T03:53:58.837Z,99823.04
2023-04-16T03:56:29.386Z,99825.59
2023-04-16T03:58:59.318Z,99825.52
2023-04-16T04:01:28.918Z,99829.60
2023-04-16T04:03:58.282Z,99830.89
2023-04-16T04:06:28.292Z,99835.73
2023-04-16T04:08:57.297Z,99832.83
2023-04-16T04:11:27.277Z,99832.36
2023-04-16T04:13:57.349Z,99833.22
2023-04-16T04:16:26.030Z,99830.21
2023-04-16T04:18:56.302Z,99828.95
2023-04-16T04:21:25.599Z,99826.48
2023-04-16T04:23:56.040Z,99826.29
2023-04-16T04:26:25.355Z,99831.77
2023-04-16T04:28:54.413Z,99830.75
2023-04-16T04:31:23.206Z,99832.00
2023-04-16T04:33:54.292Z,99831.56
2023-04-16T04:36:23.317Z,99836.79
2023-04-16T04:38:53.258Z,99838.70
2023-04-16T04:41:23.536Z,99841.84
2023-04-16T04:43:52.296Z,99840.57
2023-04-16T04:46:21.906Z,99843.42
2023-04-16T04:56:48.830Z,99848.27
2023-04-16T04:59:15.637Z,99846.70
2023-04-16T05:01:42.322Z,99846.67
2023-04-16T05:04:09.007Z,99848.75
2023-04-16T05:06:36.037Z,99850.67
2023-04-16T05:09:02.922Z,99853.20
2023-04-16T05:11:29.886Z,99852.91
2023-04-16T05:13:56.445Z,99856.98
2023-04-16T05:16:23.077Z,99854.05
2023-04-16T05:18:49.993Z,99860.13
2023-04-16T05:21:16.748Z,99865.13
2023-04-16T05:23:43.390Z,99868.77
2023-04-16T05:26:10.413Z,99866.88
2023-04-16T05:28:37.012Z,99865.84
2023-04-16T05:31:03.748Z,99866.45
2023-04-16T05:33:30.416Z,99863.85
2023-04-16T05:35:57.346Z,99866.11
2023-04-16T05:38:23.991Z,99867.14
2023-04-16T05:40:50.635Z,99866.19
2023-04-16T05:43:17.868Z,99867.04
2023-04-16T05:45:44.440Z,99867.03
2023-04-16T05:48:11.910Z,99863.56
2023-04-16T05:50:38.825Z,99874.33
2023-04-16T05:53:06.858Z,99870.27
2023-04-16T05:55:36.299Z,99876.96
2023-04-16T05:58:05.911Z,99874.77
2023-04-16T06:00:32.731Z,99878.67
2023-04-16T06:02:59.572Z,99881.92
2023-04-16T06:05:26.821Z,99881.84
2023-04-16T06:07:53.762Z,99886.16
2023-04-16T06:10:20.956Z,99887.02
2023-04-16T06:12:47.564Z,99889.91
2023-04-16T06:15:15.983Z,99898.44
2023-04-16T06:17:43.430Z,99902.98
2023-04-16T06:20:11.387Z,99902.94
2023-04-16T06:22:39.166Z,99898.48
2023-04-16T06:25:06.099Z,99902.40
2023-04-16T06:27:32.868Z,99901.24
2023-04-16T06:29:59.695Z,99905.05
2023-04-16T06:32:26.492Z,99912.02
2023-04-16T06:34:53.292Z,99911.66
2023-04-16T06:37:20.362Z,99910.04
2023-04-16T06:39:47.000Z,99914.61
2023-04-16T06:42:13.697Z,99913.63
2023-04-16T06:44:40.291Z,99916.09
2023-04-16T06:47:07.611Z,99920.67
2023-04-16T06:49:35.073Z,99921.13
2023-04-16T06:52:03.888Z,99923.84
2023-04-16T06:54:32.432Z,99922.29
2023-04-16T06:56:59.656Z,99924.50
2023-04-16T06:59:26.274Z,99927.42
2023-04-16T07:01:53.340Z,99929.48
2023-04-16T07:04:20.678Z,99928.16
2023-04-16T07:06:47.548Z,99927.91
2023-04-16T07:09:14.199Z,99935.39
2023-04-16T07:11:41.369Z,99939.16
2023-04-16T07:14:07.932Z,99936.68
2023-04-16T07:16:37.097Z,99941.77
2023-04-16T07:19:03.785Z,99933.30
2023-04-16T07:21:31.314Z,99935.85
2023-04-16T07:23:58.154Z,99938.21
2023-04-16T07:26:25.394Z,99939.73
2023-04-16T07:28:51.975Z,99941.33
2023-04-16T07:31:18.594Z,99938.63
2023-04-16T07:33:45.387Z,99937.79
2023-04-16T07:36:11.994Z,99935.69
2023-04-16T07:38:39.559Z,99937.80
2023-04-16T07:41:06.192Z,99941.72
2023-04-16T07:43:32.747Z,99940.25
2023-04-16T07:45:59.996Z,99940.76
2023-04-16T07:48:26.784Z,99941.64
2023-04-16T07:50:53.440Z,99942.71
2023-04-16T07:53:20.620Z,99945.37
2023-04-16T07:55:47.263Z,99941.54
2023-04-16T07:58:13.870Z,99940.91
2023-04-16T08:00:40.991Z,99945.17
2023-04-16T08:03:07.791Z,99945.08
2023-04-16T08:05:34.721Z,99941.85
2023-04-16T08:08:02.129Z,99941.98
2023-04-16T08:10:28.906Z,99941.59
2023-04-16T08:12:55.921Z,99944.44
2023-04-16T08:15:22.759Z,99944.25
2023-04-16T08:17:49.362Z,99944.48
2023-04-16T08:20:19.095Z,99940.14
2023-04-16T08:22:46.292Z,99936.86
2023-04-16T08:25:13.403Z,99938.86
2023-04-16T08:27:40.254Z,99936.23
2023-04-16T08:30:07.645Z,99935.27
2023-04-16T08:32:34.419Z,99939.36
2023-04-16T08:35:01.384Z,99940.48
2023-04-16T08:37:28.393Z,99940.45
2023-04-16T08:39:55.168Z,99941.98
2023-04-16T08:42:27.540Z,99942.79
2023-04-16T08:44:59.581Z,99945.88
2023-04-16T08:47:26.574Z,99943.02
2023-04-16T08:49:53.210Z,99944.16
2023-04-16T08:52:20.439Z,99948.65
2023-04-16T08:54:59.431Z,99947.15
2023-04-16T08:57:29.345Z,99946.30
2023-04-16T08:59:56.443Z,99946.71
2023-04-16T09:02:23.390Z,99947.80
2023-04-16T09:04:50.697Z,99945.02
2023-04-16T09:07:17.360Z,99944.35
2023-04-16T09:09:44.684Z,99941.17
2023-04-16T09:12:11.339Z,99942.36
2023-04-16T09:14:41.359Z,99939.40
2023-04-16T09:17:08.430Z,99943.72
2023-04-16T09:19:35.341Z,99945.38
2023-04-16T09:22:01.962Z,99945.82
2023-04-16T09:24:28.952Z,99950.08
2023-04-16T09:26:55.914Z,99950.65
2023-04-16T09:29:36.940Z,99950.59
2023-04-16T09:32:05.367Z,99953.47
2023-04-16T09:34:52.880Z,99954.73
2023-04-16T09:37:19.673Z,99961.29
2023-04-16T09:39:55.924Z,99963.34
2023-04-16T09:42:24.133Z,99967.08
2023-04-16T09:44:51.789Z,99966.11
2023-04-16T09:47:18.550Z,99965.86
2023-04-16T09:49:46.522Z,99975.69
2023-04-16T09:52:20.642Z,99979.48
2023-04-16T09:54:48.060Z,99976.21
2023-04-16T09:57:20.350Z,99983.89
2023-04-16T09:59:48.143Z,99981.48
2023-04-16T10:02:16.605Z,99983.33
2023-04-16T10:04:51.285Z,99986.40
2023-04-16T10:07:18.530Z,99990.94
2023-04-16T10:09:49.031Z,99987.75
2023-04-16T10:12:16.983Z,99990.42
2023-04-16T10:14:44.381Z,99988.46
2023-04-16T10:17:11.006Z,99993.40
2023-04-16T10:19:37.851Z,99996.22
2023-04-16T10:22:04.556Z,99996.27
2023-04-16T10:24:32.335Z,99996.77
2023-04-16T10:26:59.533Z,99994.02
2023-04-16T10:29:27.573Z,99994.70
2023-04-16T10:31:54.762Z,99995.66
2023-04-16T10:34:21.451Z,99996.33
2023-04-16T10:36:50.153Z,99997.72
2023-04-16T10:39:22.397Z,99997.48
2023-04-16T10:41:50.046Z,100000.19
2023-04-16T10:44:18.259Z,99999.95
2023-04-16T10:46:50.951Z,100003.27
2023-04-16T10:49:24.443Z,100002.27
2023-04-16T10:51:57.766Z,100005.91
2023-04-16T10:54:31.297Z,100004.35
2023-04-16T10:57:09.511Z,100007.48
2023-04-16T10:59:37.878Z,100003.80
2023-04-16T11:02:09.149Z,100002.16
2023-04-16T11:04:37.368Z,100000.23
2023-04-16T11:07:16.590Z,100002.45
2023-04-16T11:09:49.998Z,100004.45
2023-04-16T11:12:18.549Z,100004.06
2023-04-16T11:14:58.611Z,100006.41
2023-04-16T11:17:28.678Z,100003.43
2023-04-16T11:19:55.317Z,100008.98
2023-04-16T11:22:21.884Z,100012.52
2023-04-16T11:24:53.556Z,100015.08
2023-04-16T11:27:20.608Z,100014.65
2023-04-16T11:29:57.417Z,100015.33
2023-04-16T11:32:24.078Z,100014.29
2023-04-16T11:34:50.698Z,100015.21
2023-04-16T11:37:20.821Z,100014.12
2023-04-16T11:39:49.530Z,100019.10
2023-04-16T11:42:22.496Z,100014.92
2023-04-16T11:44:56.152Z,100013.42
2023-04-16T11:47:23.546Z,100010.92
2023-04-16T11:49:50.827Z,100008.22
2023-04-16T11:52:31.709Z,100010.52
2023-04-16T11:54:58.799Z,100009.08
2023-04-16T11:57:26.076Z,100004.30
2023-04-16T12:00:01.635Z,100005.86
2023-04-16T12:02:40.842Z,100006.39
2023-04-16T12:05:29.698Z,100002.98
2023-04-16T12:07:57.449Z,100003.29
2023-04-16T12:10:24.244Z,100012.42
2023-04-16T12:12:51.650Z,100013.10
2023-04-16T12:15:18.330Z,100015.80
2023-04-16T12:17:45.541Z,100008.75
2023-04-16T12:20:13.539Z,100012.58
2023-04-16T12:22:47.711Z,100012.70
2023-04-16T12:25:16.121Z,100010.59
2023-04-16T12:27:44.844Z,100012.61
2023-04-16T12:30:12.112Z,100009.96
2023-04-16T12:32:40.786Z,100006.60
2023-04-16T12:35:08.674Z,100006.13
2023-04-16T12:37:35.380Z,100006.23
2023-04-16T12:40:04.118Z,100004.69
2023-04-16T12:42:35.349Z,100007.05
2023-04-16T12:45:03.607Z,100004.61
2023-04-16T12:47:31.537Z,100005.61
2023-04-16T12:49:58.543Z,100004.39
2023-04-16T12:52:25.343Z,99999.42
2023-04-16T12:54:52.586Z,99998.56
2023-04-16T12:57:19.420Z,99998.24
2023-04-16T12:59:46.489Z,100000.45
2023-04-16T13:02:13.471Z,100003.08
2023-04-16T13:04:40.491Z,100002.74
2023-04-16T13:07:10.982Z,100002.88
2023-04-16T13:09:40.004Z,100001.30
2023-04-16T13:12:06.976Z,99998.52
2023-04-16T13:14:34.772Z,100000.08
2023-04-16T13:17:01.510Z,100000.71
2023-04-16T13:19:28.353Z,99994.92
2023-04-16T13:21:54.960Z,99996.73
2023-04-16T13:24:23.048Z,99996.42
2023-04-16T13:26:51.507Z,99998.03
2023-04-16T13:29:22.152Z,99998.60
2023-04-16T13:31:49.078Z,99998.76
2023-04-16T13:34:15.763Z,99997.80
2023-04-16T13:36:42.437Z,99998.91
2023-04-16T13:39:12.048Z,100000.47
2023-04-16T13:41:39.563Z,100004.17
2023-04-16T13:44:06.205Z,99999.83
2023-04-16T13:46:34.395Z,99998.06
2023-04-16T13:49:01.043Z,99994.61
2023-04-16T13:51:27.797Z,99997.43
2023-04-16T13:53:57.367Z,99994.30
2023-04-16T13:56:24.677Z,99997.31
2023-04-16T13:58:51.684Z,99995.33
2023-04-16T14:01:18.380Z,99996.85
2023-04-16T14:03:45.369Z,99998.92
2023-04-16T14:06:13.137Z,100003.04
2023-04-16T14:08:40.120Z,100001.14
2023-04-16T14:11:08.567Z,100000.09
2023-04-16T14:13:36.071Z,99995.61
2023-04-16T14:16:02.704Z,99996.00
2023-04-16T14:18:29.792Z,99993.38
2023-04-16T14:20:56.965Z,99992.59
2023-04-16T14:23:23.584Z,99994.75
2023-04-16T14:25:50.179Z,99990.42
2023-04-16T14:28:17.058Z,99993.22
2023-04-16T14:30:43.795Z,99994.48
2023-04-16T14:33:10.818Z,99993.80
2023-04-16T14:35:37.637Z,99996.45
2023-04-16T14:38:04.464Z,99995.94
2023-04-16T14:40:31.115Z,99997.98
2023-04-16T14:42:57.749Z,99998.10
2023-04-16T14:45:28.429Z,99997.02
2023-04-16T14:47:55.429Z,99999.30
2023-04-16T14:50:22.266Z,99999.94
2023-04-16T14:52:51.161Z,100003.63
2023-04-16T14:55:17.912Z,100004.08
2023-04-16T14:57:44.518Z,100008.45
2023-04-16T15:00:12.854Z,100005.69
2023-04-16T15:02:39.992Z,100005.11
2023-04-16T15:05:09.212Z,100007.73
2023-04-16T15:07:36.402Z,100006.66
2023-04-16T15:10:03.261Z,100006.59
2023-04-16T15:12:30.103Z,99999.03
2023-04-16T15:14:57.060Z,100000.75
2023-04-16T15:17:23.880Z,100004.98
2023-04-16T15:19:51.615Z,100001.08
2023-04-16T15:22:18.213Z,99999.83
2023-04-16T15:24:44.829Z,99997.77
2023-04-16T15:27:13.292Z,99994.47
2023-04-16T15:29:40.005Z,99995.95
2023-04-16T15:32:06.804Z,99996.71
2023-04-16T15:34:34.677Z,99999.23
2023-04-16T15:37:01.450Z,99997.29
2023-04-16T15:39:28.415Z,99997.73
2023-04-16T15:42:01.214Z,99998.63
2023-04-16T15:44:30.644Z,100004.14
2023-04-16T15:46:57.610Z,100003.27
2023-04-16T15:49:24.463Z,100001.65
2023-04-16T15:51:51.905Z,99998.19
2023-04-16T15:54:18.828Z,100002.88
2023-04-16T15:56:46.200Z,100000.42
2023-04-16T15:59:13.123Z,100003.02
2023-04-16T16:01:41.429Z,100002.17
2023-04-16T16:04:08.323Z,100002.35
2023-04-16T16:06:35.473Z,100005.09
2023-04-16T16:09:03.165Z,100009.38
2023-04-16T16:11:29.794Z,100013.34
2023-04-16T16:13:56.697Z,100010.38
2023-04-16T16:16:23.412Z,100010.10
2023-04-16T16:18:50.030Z,100008.83
2023-04-16T16:21:16.970Z,100011.06
2023-04-16T16:23:43.660Z,100009.33
2023-04-16T16:26:10.323Z,100008.36
2023-04-16T16:28:37.659Z,100007.77
2023-04-16T16:31:05.478Z,100009.81
2023-04-16T16:33:32.466Z,100009.30
2023-04-16T16:35:59.206Z,100006.02
2023-04-16T16:38:26.531Z,100000.42
2023-04-16T16:40:53.121Z,100000.39
2023-04-16T16:43:20.179Z,100005.84
2023-04-16T16:45:46.873Z,100004.95
2023-04-16T16:48:13.565Z,100007.71
2023-04-16T16:50:40.344Z,100004.06
2023-04-16T16:53:07.263Z,100007.05
2023-04-16T16:55:34.969Z,100011.75
2023-04-16T16:58:02.456Z,100014.03
2023-04-16T17:00:29.331Z,100018.79
2023-04-16T17:02:56.246Z,100022.19
2023-04-16T17:05:22.997Z,100020.02
2023-04-16T17:07:50.143Z,100028.63
2023-04-16T17:10:20.360Z,100030.24
2023-04-16T17:12:47.797Z,100036.56
2023-04-16T17:15:14.963Z,100036.21
2023-04-16T17:17:41.975Z,100035.73
2023-04-16T17:20:10.302Z,100042.42
2023-04-16T17:22:38.459Z,100043.30
2023-04-16T17:25:07.005Z,100046.77
2023-04-16T17:27:33.907Z,100044.48
2023-04-16T17:30:01.472Z,100043.02
2023-04-16T17:32:29.256Z,100043.60
2023-04-16T17:34:56.110Z,100046.36
2023-04-16T17:37:22.806Z,100046.87
2023-04-16T17:39:49.619Z,100051.77
2023-04-16T17:42:16.958Z,100052.74
2023-04-16T17:44:43.866Z,100055.27
2023-04-16T17:47:10.704Z,100056.13
2023-04-16T17:49:37.406Z,100060.35
2023-04-16T17:52:04.213Z,100059.67
2023-04-16T17:54:30.940Z,100060.54
2023-04-16T17:56:58.285Z,100060.89
2023-04-16T17:59:25.313Z,100060.41
2023-04-16T18:01:52.224Z,100066.08
2023-04-16T18:04:19.413Z,100065.16
2023-04-16T18:06:46.528Z,100064.60
2023-04-16T18:09:14.951Z,100064.45
2023-04-16T18:11:41.615Z,100068.69
2023-04-16T18:14:09.518Z,100068.95
2023-04-16T18:16:36.718Z,100068.88
2023-04-16T18:19:03.369Z,100069.20
2023-04-16T18:21:30.998Z,100071.39
2023-04-16T18:23:58.150Z,100073.77
2023-04-16T18:26:25.373Z,100075.09
2023-04-16T18:28:52.048Z,100076.23
2023-04-16T18:31:21.019Z,100077.62
2023-04-16T18:33:56.809Z,100079.88
2023-04-16T18:36:26.087Z,100075.64
2023-04-16T18:39:15.152Z,100077.84
2023-04-16T18:41:41.070Z,100073.81
2023-04-16T18:44:10.098Z,100075.99
2023-04-16T18:46:36.718Z,100079.64
2023-04-16T18:49:03.590Z,100077.09
2023-04-16T18:51:30.460Z,100074.74
2023-04-16T18:53:57.405Z,100073.63
2023-04-16T18:56:24.110Z,100074.42
2023-04-16T18:58:50.793Z,100077.49
2023-04-16T19:01:17.716Z,100076.61
2023-04-16T19:03:44.922Z,100077.99
2023-04-16T19:06:11.565Z,100077.27
2023-04-16T19:08:38.632Z,100072.71
2023-04-16T19:11:05.403Z,100070.61
2023-04-16T19:13:32.556Z,100067.98
2023-04-16T19:16:00.405Z,100065.91
2023-04-16T19:18:27.492Z,100069.06
2023-04-16T19:21:00.628Z,100068.61
2023-04-16T19:23:27.580Z,100073.69
2023-04-16T19:25:58.000Z,100070.89
2023-04-16T19:28:24.720Z,100067.04
2023-04-16T19:30:52.042Z,100066.23
2023-04-16T19:33:18.748Z,100069.85
2023-04-16T19:35:46.052Z,100067.73
2023-04-16T19:38:13.794Z,100065.80
2023-04-16T19:40:44.806Z,100057.73
2023-04-16T19:43:11.917Z,100058.55
2023-04-16T19:45:52.726Z,100059.77
2023-04-16T19:48:20.867Z,100053.77
2023-04-16T19:50:47.663Z,100056.94
2023-04-16T19:53:16.473Z,100056.42
2023-04-16T19:55:43.162Z,100055.34
2023-04-16T19:58:10.053Z,100054.66
2023-04-16T20:00:37.926Z,100052.30
2023-04-16T20:03:05.415Z,100049.70
2023-04-16T20:05:32.490Z,100048.42
2023-04-16T20:07:59.082Z,100050.60
2023-04-16T20:10:26.548Z,100045.30
2023-04-16T20:12:53.202Z,100041.63
2023-04-16T20:15:21.083Z,100045.73
2023-04-16T20:17:47.833Z,100040.98
2023-04-16T20:20:15.965Z,100044.31
2023-04-16T20:22:43.068Z,100045.36
2023-04-16T20:25:09.733Z,100049.42
2023-04-16T20:27:36.643Z,100046.36
2023-04-16T20:30:05.454Z,100047.61
2023-04-16T20:32:32.574Z,100049.19
2023-04-16T20:34:59.503Z,100044.44
2023-04-16T20:37:28.379Z,100044.35
2023-04-16T20:39:55.636Z,100041.83
2023-04-16T20:42:22.868Z,100044.60
2023-04-16T20:44:55.569Z,100041.42
2023-04-16T20:47:22.479Z,100042.59
2023-04-16T20:49:49.104Z,100043.77
2023-04-16T20:52:16.215Z,100041.85
2023-04-16T20:54:43.718Z,100043.75
2023-04-16T20:57:10.504Z,100037.78
2023-04-16T20:59:37.397Z,100038.99
2023-04-16T21:02:04.331Z,100037.48
2023-04-16T21:04:32.493Z,100031.45
2023-04-16T21:07:02.596Z,100030.66
2023-04-16T21:09:30.410Z,100028.37
2023-04-16T21:11:57.138Z,100025.41
2023-04-16T21:14:23.759Z,100027.84
2023-04-16T21:16:50.517Z,100028.16
2023-04-16T21:19:17.077Z,100025.95
2023-04-16T21:21:43.878Z,100024.31
2023-04-16T21:24:10.501Z,100023.76
2023-04-16T21:26:37.141Z,100018.73
2023-04-16T21:29:03.689Z,100018.78
2023-04-16T21:31:30.508Z,100017.99
2023-04-16T21:33:57.176Z,100013.73
2023-04-16T21:36:25.998Z,100016.30
2023-04-16T21:38:52.653Z,100013.63
2023-04-16T21:41:19.257Z,100013.60
2023-04-16T21:43:48.519Z,100008.92
2023-04-16T21:46:16.426Z,100006.12
2023-04-16T21:48:43.034Z,100005.98
2023-04-16T21:51:10.151Z,100006.30
2023-04-16T21:53:38.253Z,100003.14
2023-04-16T21:56:05.781Z,100000.10
2023-04-16T21:58:32.473Z,100004.22
2023-04-16T22:00:59.094Z,100005.50
2023-04-16T22:03:27.447Z,100002.79
2023-04-16T22:06:00.071Z,100003.70
2023-04-16T22:08:30.620Z,100006.31
2023-04-16T22:11:01.589Z,100001.60
2023-04-16T22:13:31.601Z,100001.57
2023-04-16T22:16:00.790Z,99995.80
2023-04-16T22:18:28.469Z,99998.37
2023-04-16T22:20:55.597Z,99993.34
2023-04-16T22:23:25.127Z,99995.21
2023-04-16T22:25:53.384Z,99994.06
2023-04-16T22:28:20.543Z,99990.31
2023-04-16T22:30:47.314Z,99995.33
2023-04-16T22:33:14.239Z,99993.05
2023-04-16T22:35:40.927Z,99989.76
2023-04-16T22:38:07.735Z,99987.91
2023-04-16T22:40:34.431Z,99989.52
2023-04-16T22:43:01.230Z,99985.12
2023-04-16T22:45:27.972Z,99984.15
2023-04-16T22:47:54.746Z,99980.06
2023-04-16T22:50:22.624Z,99975.16
2023-04-16T22:52:49.194Z,99979.84
2023-04-16T22:55:16.238Z,99979.60
2023-04-16T22:57:43.344Z,99974.36
2023-04-16T23:00:15.116Z,99974.56
2023-04-16T23:02:42.443Z,99972.97
2023-04-16T23:05:09.170Z,99969.73
2023-04-16T23:07:35.883Z,99968.25
2023-04-16T23:10:02.638Z,99970.30
2023-04-16T23:12:30.053Z,99966.98
2023-04-16T23:14:57.695Z,99966.33
2023-04-16T23:17:24.655Z,99964.15
2023-04-16T23:19:51.288Z,99960.73
2023-04-16T23:22:17.954Z,99957.48
2023-04-16T23:24:45.254Z,99956.52
2023-04-16T23:27:11.949Z,99951.20
2023-04-16T23:29:38.576Z,99947.38
2023-04-16T23:32:05.424Z,99947.08
2023-04-16T23:34:32.287Z,99946.27
2023-04-16T23:36:58.851Z,99945.84
2023-04-16T23:39:25.616Z,99946.45
2023-04-16T23:41:52.250Z,99947.27
2023-04-16T23:44:18.892Z,99949.43
2023-04-16T23:46:45.844Z,99945.44
2023-04-16T23:49:12.821Z,99942.56
2023-04-16T23:51:40.310Z,99940.52
2023-04-16T23:54:07.114Z,99936.81
2023-04-16T23:56:34.027Z,99933.77
2023-04-16T23:59:00.692Z,99938.89
